Time;durP1;ratioP1;P1;durP2;ratioP2;P2;SDS_P1;SDS_P2;PMS_P1;PMS_P2;Temp;Humidity;BMP_temperature;BMP_pressure;BME280_temperature;BME280_humidity;BME280_pressure;Samples;Min_cycle;Max_cycle;Signal;HPM_P1;HPM_P2
2023/05/30 00:01:45;;;;;;;3.50;1.40;;;;;;;;;;5069865;28;20048;-76
2023/05/30 00:04:11;;;;;;;3.63;1.50;;;;;;;;;;5055578;28;20036;-77
2023/05/30 00:06:36;;;;;;;3.50;1.55;;;;;;;;;;5038824;28;21433;-77
2023/05/30 00:09:03;;;;;;;4.35;1.67;;;;;;;;;;5053903;28;20089;-77
2023/05/30 00:11:29;;;;;;;3.92;1.52;;;;;;;;;;5064513;28;20135;-76
2023/05/30 00:13:58;;;;;;;5.97;1.65;;;;;;;;;;5050369;28;20115;-77
2023/05/30 00:16:23;;;;;;;3.38;1.50;;;;;;;;;;5066556;28;20032;-77
2023/05/30 00:18:52;;;;;;;3.22;1.70;;;;;;;;;;5036363;28;20047;-77
2023/05/30 00:21:18;;;;;;;5.35;1.80;;;;;;;;;;5064072;28;20153;-76
2023/05/30 00:23:45;;;;;;;2.38;1.30;;;;;;;;;;5050912;28;20063;-76
2023/05/30 00:26:11;;;;;;;4.63;1.80;;;;;;;;;;5051605;28;20123;-76
2023/05/30 00:28:37;;;;;;;5.40;1.95;;;;;;;;;;5050740;28;20122;-78
2023/05/30 00:31:03;;;;;;;2.58;1.63;;;;;;;;;;5037988;28;20049;-76
2023/05/30 00:33:28;;;;;;;1.88;0.90;;;;;;;;;;5036159;28;20060;-77
2023/05/30 00:35:54;;;;;;;3.75;1.48;;;;;;;;;;5063217;28;20462;-76
2023/05/30 00:38:20;;;;;;;6.57;1.67;;;;;;;;;;5062378;28;20058;-77
2023/05/30 00:40:45;;;;;;;5.47;1.58;;;;;;;;;;5041287;28;20041;-76
2023/05/30 00:43:11;;;;;;;2.45;1.02;;;;;;;;;;5046778;28;20044;-77
2023/05/30 00:45:36;;;;;;;2.90;1.10;;;;;;;;;;5034235;28;20107;-77
2023/05/30 00:48:02;;;;;;;4.88;1.80;;;;;;;;;;5055387;28;20042;-77
2023/05/30 00:50:30;;;;;;;4.40;1.70;;;;;;;;;;5069877;28;20035;-78
2023/05/30 00:52:57;;;;;;;3.40;1.35;;;;;;;;;;5065891;28;20409;-78
2023/05/30 00:55:24;;;;;;;4.82;1.67;;;;;;;;;;5064968;28;20093;-78
2023/05/30 00:57:50;;;;;;;4.13;2.17;;;;;;;;;;5061790;28;20039;-77
2023/05/30 01:00:16;;;;;;;3.80;1.38;;;;;;;;;;5053110;28;20048;-77
2023/05/30 01:02:44;;;;;;;2.25;1.17;;;;;;;;;;5066467;28;20067;-77
2023/05/30 01:05:14;;;;;;;6.72;1.63;;;;;;;;;;5066023;28;20048;-76
2023/05/30 01:07:43;;;;;;;3.30;1.42;;;;;;;;;;5064491;28;20575;-77
2023/05/30 01:10:11;;;;;;;6.57;1.70;;;;;;;;;;5035983;28;20055;-77
2023/05/30 01:12:43;;;;;;;4.18;1.30;;;;;;;;;;5026769;28;20036;-76
2023/05/30 01:15:19;;;;;;;4.45;1.63;;;;;;;;;;5024295;28;20064;-77
2023/05/30 01:18:07;;;;;;;4.50;1.60;;;;;;;;;;5036699;28;20143;-76
2023/05/30 01:20:38;;;;;;;3.28;1.52;;;;;;;;;;5041820;28;20055;-77
2023/05/30 01:23:03;;;;;;;3.58;1.50;;;;;;;;;;5039972;28;20123;-77
2023/05/30 01:25:50;;;;;;;4.45;1.65;;;;;;;;;;5066883;28;20127;-76
2023/05/30 01:28:21;;;;;;;5.57;1.95;;;;;;;;;;5046732;28;20142;-76
2023/05/30 01:30:51;;;;;;;5.15;1.60;;;;;;;;;;5047294;28;20045;-77
2023/05/30 01:33:19;;;;;;;2.50;1.17;;;;;;;;;;5036794;28;20589;-77
2023/05/30 01:35:45;;;;;;;4.47;1.58;;;;;;;;;;5020426;28;20049;-77
2023/05/30 01:38:11;;;;;;;4.70;1.50;;;;;;;;;;5043544;28;20038;-77
2023/05/30 01:40:38;;;;;;;7.60;2.95;;;;;;;;;;5022886;28;20040;-78
2023/05/30 01:43:22;;;;;;;3.03;1.45;;;;;;;;;;5041955;28;20085;-78
2023/05/30 01:45:50;;;;;;;4.60;1.50;;;;;;;;;;5007494;28;20063;-77
2023/05/30 01:48:25;;;;;;;2.72;1.30;;;;;;;;;;5044703;28;20037;-77
2023/05/30 01:50:52;;;;;;;3.00;1.30;;;;;;;;;;5043923;28;20051;-78
2023/05/30 01:53:25;;;;;;;6.20;1.80;;;;;;;;;;5048917;28;20033;-76
2023/05/30 01:55:54;;;;;;;6.75;1.85;;;;;;;;;;5059103;28;20040;-76
2023/05/30 01:58:21;;;;;;;6.72;1.58;;;;;;;;;;5067135;28;20047;-76
2023/05/30 02:00:47;;;;;;;7.75;1.83;;;;;;;;;;5028860;28;20584;-76
2023/05/30 02:03:12;;;;;;;6.95;1.65;;;;;;;;;;5044561;28;20052;-76
2023/05/30 02:05:38;;;;;;;5.43;1.80;;;;;;;;;;5040990;28;20045;-76
2023/05/30 02:08:03;;;;;;;2.85;1.23;;;;;;;;;;5052423;28;20038;-76
2023/05/30 02:10:29;;;;;;;7.13;2.00;;;;;;;;;;5056126;28;20086;-77
2023/05/30 02:12:54;;;;;;;5.95;1.58;;;;;;;;;;5035590;28;20029;-77
2023/05/30 02:15:20;;;;;;;6.00;1.92;;;;;;;;;;5059750;28;20127;-76
2023/05/30 02:17:45;;;;;;;4.63;1.60;;;;;;;;;;5040216;28;20045;-77
2023/05/30 02:20:11;;;;;;;2.95;1.30;;;;;;;;;;5045939;28;20058;-78
2023/05/30 02:22:36;;;;;;;4.75;1.70;;;;;;;;;;5060628;28;20048;-76
2023/05/30 02:25:02;;;;;;;5.93;1.48;;;;;;;;;;5059456;28;20039;-76
2023/05/30 02:27:27;;;;;;;4.35;1.83;;;;;;;;;;5044374;28;20032;-77
2023/05/30 02:29:52;;;;;;;4.47;1.85;;;;;;;;;;5062491;28;20056;-76
2023/05/30 02:32:18;;;;;;;3.78;1.30;;;;;;;;;;5058589;28;20040;-78
2023/05/30 02:34:43;;;;;;;5.38;1.77;;;;;;;;;;5054963;28;20041;-77
2023/05/30 02:37:08;;;;;;;6.80;2.03;;;;;;;;;;5051578;28;20051;-77
2023/05/30 02:39:34;;;;;;;7.80;1.88;;;;;;;;;;5041980;28;20460;-76
2023/05/30 02:42:00;;;;;;;6.45;1.88;;;;;;;;;;5038104;28;20036;-76
2023/05/30 02:44:25;;;;;;;3.35;1.60;;;;;;;;;;5044888;28;20048;-76
2023/05/30 02:46:50;;;;;;;6.13;1.70;;;;;;;;;;5045978;28;20046;-77
2023/05/30 02:49:16;;;;;;;4.43;1.40;;;;;;;;;;5055691;28;20483;-77
2023/05/30 02:51:43;;;;;;;5.35;1.65;;;;;;;;;;5064286;28;20373;-77
2023/05/30 02:54:08;;;;;;;2.83;1.40;;;;;;;;;;5048149;28;20036;-77
2023/05/30 02:56:34;;;;;;;3.13;1.10;;;;;;;;;;5042547;28;20040;-76
2023/05/30 02:59:00;;;;;;;6.65;1.88;;;;;;;;;;5063589;28;20031;-76
2023/05/30 03:01:25;;;;;;;5.32;1.85;;;;;;;;;;5057402;28;20052;-76
2023/05/30 03:03:50;;;;;;;5.70;1.60;;;;;;;;;;5044266;28;20087;-76
2023/05/30 03:06:16;;;;;;;4.15;1.10;;;;;;;;;;5044184;28;20274;-77
2023/05/30 03:08:42;;;;;;;3.88;1.60;;;;;;;;;;5040916;28;20527;-77
2023/05/30 03:11:08;;;;;;;4.72;1.30;;;;;;;;;;5041121;28;20040;-76
2023/05/30 03:13:33;;;;;;;7.53;1.90;;;;;;;;;;5062655;28;20081;-77
2023/05/30 03:15:59;;;;;;;5.05;1.80;;;;;;;;;;5054490;28;20041;-77
2023/05/30 03:18:24;;;;;;;3.38;1.48;;;;;;;;;;5056708;28;20042;-76
2023/05/30 03:20:49;;;;;;;2.60;1.40;;;;;;;;;;5065148;28;20531;-77
2023/05/30 03:23:15;;;;;;;5.50;1.60;;;;;;;;;;5051709;28;20096;-76
2023/05/30 03:25:40;;;;;;;3.83;1.65;;;;;;;;;;5043630;28;20392;-76
2023/05/30 03:28:06;;;;;;;3.13;1.45;;;;;;;;;;5063558;28;20035;-77
2023/05/30 03:30:34;;;;;;;7.13;1.88;;;;;;;;;;5066230;28;20044;-76
2023/05/30 03:33:00;;;;;;;5.75;2.00;;;;;;;;;;5053174;28;20111;-77
2023/05/30 03:35:26;;;;;;;4.43;1.70;;;;;;;;;;5058049;28;20424;-77
2023/05/30 03:37:52;;;;;;;3.53;1.63;;;;;;;;;;5035260;28;20115;-77
2023/05/30 03:40:17;;;;;;;5.93;1.77;;;;;;;;;;5018787;28;20056;-76
2023/05/30 03:42:43;;;;;;;4.18;1.50;;;;;;;;;;5063268;28;20122;-77
2023/05/30 03:45:09;;;;;;;4.13;1.88;;;;;;;;;;5052522;28;20044;-76
2023/05/30 03:47:35;;;;;;;5.45;2.40;;;;;;;;;;5055849;28;20043;-77
2023/05/30 03:50:01;;;;;;;4.07;1.88;;;;;;;;;;5062981;28;20036;-78
2023/05/30 03:52:26;;;;;;;9.00;1.83;;;;;;;;;;5041282;28;20028;-77
2023/05/30 03:54:52;;;;;;;2.65;1.52;;;;;;;;;;5063506;28;20349;-76
2023/05/30 03:57:17;;;;;;;5.00;2.05;;;;;;;;;;5046606;28;20036;-77
2023/05/30 03:59:42;;;;;;;5.35;1.90;;;;;;;;;;5048968;28;20048;-77
2023/05/30 04:02:08;;;;;;;8.48;2.08;;;;;;;;;;5070223;28;20542;-78
2023/05/30 04:04:33;;;;;;;6.10;2.40;;;;;;;;;;5059631;28;20043;-77
2023/05/30 04:07:00;;;;;;;7.30;2.45;;;;;;;;;;5044444;28;20047;-76
2023/05/30 04:09:25;;;;;;;5.20;1.70;;;;;;;;;;5064373;28;20040;-78
2023/05/30 04:11:52;;;;;;;4.43;2.00;;;;;;;;;;5065532;28;20036;-77
2023/05/30 04:14:17;;;;;;;5.15;2.20;;;;;;;;;;5034835;28;20040;-76
2023/05/30 04:16:43;;;;;;;6.50;2.20;;;;;;;;;;5060675;28;20517;-77
2023/05/30 04:19:08;;;;;;;6.95;2.05;;;;;;;;;;5069171;28;20114;-77
2023/05/30 04:21:33;;;;;;;5.97;2.20;;;;;;;;;;5048624;28;20040;-77
2023/05/30 04:23:59;;;;;;;8.32;2.38;;;;;;;;;;5066076;28;20769;-77
2023/05/30 04:26:25;;;;;;;4.28;1.90;;;;;;;;;;5063788;28;20043;-77
2023/05/30 04:28:56;;;;;;;8.48;2.08;;;;;;;;;;5066251;28;20585;-76
2023/05/30 04:31:22;;;;;;;8.43;2.00;;;;;;;;;;5067264;28;20044;-78
2023/05/30 04:33:48;;;;;;;8.38;2.28;;;;;;;;;;5056919;28;20375;-77
2023/05/30 04:36:18;;;;;;;4.53;2.45;;;;;;;;;;5040941;28;20694;-77
2023/05/30 04:38:45;;;;;;;6.40;2.53;;;;;;;;;;5065967;28;20501;-76
2023/05/30 04:41:10;;;;;;;6.40;2.20;;;;;;;;;;5061427;28;20125;-77
2023/05/30 04:43:35;;;;;;;6.90;2.25;;;;;;;;;;5047796;28;20121;-78
2023/05/30 04:46:03;;;;;;;6.10;2.20;;;;;;;;;;5045960;28;20392;-76
2023/05/30 04:48:29;;;;;;;5.07;2.20;;;;;;;;;;5042995;28;20072;-76
2023/05/30 04:50:56;;;;;;;6.53;1.90;;;;;;;;;;5066156;28;20064;-76
2023/05/30 04:53:22;;;;;;;3.28;1.77;;;;;;;;;;5065189;28;20036;-78
2023/05/30 04:55:49;;;;;;;6.25;1.80;;;;;;;;;;5064714;28;20043;-77
2023/05/30 04:58:15;;;;;;;7.50;1.52;;;;;;;;;;5051654;28;20035;-77
2023/05/30 05:00:40;;;;;;;6.20;1.92;;;;;;;;;;5059493;28;20629;-77
2023/05/30 05:03:06;;;;;;;5.97;2.03;;;;;;;;;;5028016;28;20037;-78
2023/05/30 05:05:32;;;;;;;5.13;1.98;;;;;;;;;;5065440;28;20044;-76
2023/05/30 05:07:58;;;;;;;6.43;2.00;;;;;;;;;;5065138;28;20051;-79
2023/05/30 05:10:23;;;;;;;5.88;2.17;;;;;;;;;;5051950;28;20044;-79
2023/05/30 05:12:48;;;;;;;12.55;2.28;;;;;;;;;;5046769;28;20051;-79
2023/05/30 05:15:14;;;;;;;5.88;1.65;;;;;;;;;;5041539;28;20033;-79
2023/05/30 05:17:39;;;;;;;6.28;2.00;;;;;;;;;;5049061;28;20049;-80
2023/05/30 05:20:08;;;;;;;6.15;2.08;;;;;;;;;;5051384;28;20928;-79
2023/05/30 05:22:35;;;;;;;4.10;1.92;;;;;;;;;;5053398;28;20075;-78
2023/05/30 05:25:01;;;;;;;4.72;2.00;;;;;;;;;;5061903;28;20670;-76
2023/05/30 05:27:28;;;;;;;7.93;2.10;;;;;;;;;;5062941;28;20695;-77
2023/05/30 05:29:53;;;;;;;8.27;2.10;;;;;;;;;;5044118;28;20042;-77
2023/05/30 05:32:18;;;;;;;6.15;2.22;;;;;;;;;;5044869;28;20044;-77
2023/05/30 05:34:44;;;;;;;9.23;2.05;;;;;;;;;;5044747;28;20048;-77
2023/05/30 05:37:09;;;;;;;9.48;1.98;;;;;;;;;;5044983;28;20039;-77
2023/05/30 05:39:35;;;;;;;6.40;2.10;;;;;;;;;;5057534;28;20105;-77
2023/05/30 05:42:03;;;;;;;9.05;2.45;;;;;;;;;;5063522;28;20697;-77
2023/05/30 05:44:30;;;;;;;7.43;1.95;;;;;;;;;;5043211;28;20039;-76
2023/05/30 05:46:55;;;;;;;7.28;1.92;;;;;;;;;;5063802;28;20039;-77
2023/05/30 05:49:21;;;;;;;4.75;1.95;;;;;;;;;;5064851;28;20093;-77
2023/05/30 05:51:46;;;;;;;8.30;2.80;;;;;;;;;;5063976;28;20078;-77
2023/05/30 05:54:12;;;;;;;6.20;2.30;;;;;;;;;;5063606;28;20065;-77
2023/05/30 05:56:37;;;;;;;13.95;2.40;;;;;;;;;;5047960;28;20122;-77
2023/05/30 05:59:03;;;;;;;7.43;1.92;;;;;;;;;;5040918;28;20497;-77
2023/05/30 06:01:28;;;;;;;8.25;1.98;;;;;;;;;;5055095;28;20072;-77
2023/05/30 06:03:54;;;;;;;6.18;1.95;;;;;;;;;;5057225;28;20488;-77
2023/05/30 06:06:19;;;;;;;10.38;2.03;;;;;;;;;;5053237;28;20123;-77
2023/05/30 06:08:46;;;;;;;7.15;1.90;;;;;;;;;;5021689;28;20568;-77
2023/05/30 06:11:12;;;;;;;6.10;1.63;;;;;;;;;;5016622;28;20128;-77
2023/05/30 06:13:37;;;;;;;7.07;1.75;;;;;;;;;;5009524;28;20109;-77
2023/05/30 06:16:03;;;;;;;9.80;2.38;;;;;;;;;;5035292;28;20122;-77
2023/05/30 06:18:28;;;;;;;5.25;2.30;;;;;;;;;;5060310;28;20925;-77
2023/05/30 06:20:53;;;;;;;4.82;1.40;;;;;;;;;;5055302;28;20504;-77
2023/05/30 06:23:19;;;;;;;7.20;1.88;;;;;;;;;;5063074;28;20113;-76
2023/05/30 06:25:45;;;;;;;5.78;1.60;;;;;;;;;;5038503;28;20178;-77
2023/05/30 06:28:10;;;;;;;5.32;1.95;;;;;;;;;;5043351;28;20044;-77
2023/05/30 06:30:36;;;;;;;4.22;1.60;;;;;;;;;;5053758;28;20099;-77
2023/05/30 06:33:01;;;;;;;6.47;1.70;;;;;;;;;;5063954;28;20042;-77
2023/05/30 06:35:26;;;;;;;7.13;2.17;;;;;;;;;;5063894;28;20116;-78
2023/05/30 06:37:52;;;;;;;6.45;1.90;;;;;;;;;;5063565;28;20587;-77
2023/05/30 06:40:17;;;;;;;4.10;1.35;;;;;;;;;;5038128;28;20040;-77
2023/05/30 06:42:43;;;;;;;5.75;1.58;;;;;;;;;;5063847;28;20446;-77
2023/05/30 06:45:08;;;;;;;4.35;1.40;;;;;;;;;;5063552;28;20045;-77
2023/05/30 06:47:34;;;;;;;6.22;1.70;;;;;;;;;;5053190;28;20157;-77
2023/05/30 06:49:59;;;;;;;5.13;1.73;;;;;;;;;;5046890;28;20431;-77
2023/05/30 06:52:25;;;;;;;3.70;1.30;;;;;;;;;;5063614;28;20039;-77
2023/05/30 06:54:50;;;;;;;3.85;1.40;;;;;;;;;;5042072;28;20664;-76
2023/05/30 06:57:15;;;;;;;4.03;1.33;;;;;;;;;;5064361;28;20109;-77
2023/05/30 06:59:41;;;;;;;5.55;1.70;;;;;;;;;;5055626;28;20045;-77
2023/05/30 07:02:06;;;;;;;5.00;1.25;;;;;;;;;;5031414;28;20127;-77
2023/05/30 07:04:32;;;;;;;9.02;1.80;;;;;;;;;;5044384;28;20040;-77
2023/05/30 07:06:57;;;;;;;2.03;1.30;;;;;;;;;;5047230;28;20123;-77
2023/05/30 07:09:22;;;;;;;7.05;1.92;;;;;;;;;;5045005;28;20071;-77
2023/05/30 07:11:49;;;;;;;3.20;1.17;;;;;;;;;;5046735;28;20040;-77
2023/05/30 07:14:14;;;;;;;7.50;1.90;;;;;;;;;;5063454;28;20073;-77
2023/05/30 07:16:40;;;;;;;4.47;1.35;;;;;;;;;;5063690;28;20048;-77
2023/05/30 07:19:06;;;;;;;7.00;1.40;;;;;;;;;;5063712;28;20600;-77
2023/05/30 07:21:31;;;;;;;9.55;1.70;;;;;;;;;;5043683;28;20133;-78
2023/05/30 07:23:56;;;;;;;3.72;1.25;;;;;;;;;;5025617;28;20162;-77
2023/05/30 07:26:22;;;;;;;3.95;0.90;;;;;;;;;;5060943;28;20032;-77
2023/05/30 07:28:48;;;;;;;4.82;1.50;;;;;;;;;;5055409;28;20055;-76
2023/05/30 07:31:13;;;;;;;4.28;1.65;;;;;;;;;;5052150;28;20123;-76
2023/05/30 07:33:39;;;;;;;3.75;1.40;;;;;;;;;;5043524;28;20061;-77
2023/05/30 07:36:04;;;;;;;4.82;1.60;;;;;;;;;;5031632;28;20382;-76
2023/05/30 07:38:29;;;;;;;7.97;1.98;;;;;;;;;;5023543;28;20063;-76
2023/05/30 07:40:55;;;;;;;3.30;1.48;;;;;;;;;;5042350;28;20041;-76
2023/05/30 07:43:20;;;;;;;4.47;1.13;;;;;;;;;;5029423;28;20536;-76
2023/05/30 07:45:45;;;;;;;3.53;1.33;;;;;;;;;;5070876;28;20044;-76
2023/05/30 07:48:11;;;;;;;6.18;1.70;;;;;;;;;;5066097;28;20065;-76
2023/05/30 07:50:36;;;;;;;3.08;1.13;;;;;;;;;;5039670;28;20040;-76
2023/05/30 07:53:01;;;;;;;1.90;1.00;;;;;;;;;;5008771;28;20026;-76
2023/05/30 07:55:27;;;;;;;2.80;1.40;;;;;;;;;;5032849;28;20051;-76
2023/05/30 07:57:52;;;;;;;6.97;1.65;;;;;;;;;;5051408;28;20047;-76
2023/05/30 08:00:18;;;;;;;3.80;1.50;;;;;;;;;;5059183;28;20401;-76
2023/05/30 08:02:43;;;;;;;4.10;1.35;;;;;;;;;;5067539;28;20543;-76
2023/05/30 08:05:09;;;;;;;6.50;1.67;;;;;;;;;;5054753;28;20044;-76
2023/05/30 08:07:34;;;;;;;4.95;1.50;;;;;;;;;;5023379;28;20048;-76
2023/05/30 08:10:00;;;;;;;4.55;1.33;;;;;;;;;;5058793;28;20036;-76
2023/05/30 08:12:29;;;;;;;5.10;1.30;;;;;;;;;;5047078;28;20404;-76
2023/05/30 08:14:55;;;;;;;3.90;1.60;;;;;;;;;;5047450;28;20037;-76
2023/05/30 08:17:23;;;;;;;4.00;1.38;;;;;;;;;;5044426;28;20481;-76
2023/05/30 08:19:50;;;;;;;3.40;1.60;;;;;;;;;;5043935;28;20044;-76
2023/05/30 08:22:15;;;;;;;4.05;1.27;;;;;;;;;;5061478;28;20041;-76
2023/05/30 08:24:41;;;;;;;3.83;1.52;;;;;;;;;;5056297;28;20155;-76
2023/05/30 08:27:08;;;;;;;6.38;1.80;;;;;;;;;;5065285;28;20131;-76
2023/05/30 08:29:33;;;;;;;4.70;1.40;;;;;;;;;;5035130;28;20055;-76
2023/05/30 08:31:59;;;;;;;2.40;1.00;;;;;;;;;;5046463;28;20036;-76
2023/05/30 08:34:24;;;;;;;4.03;1.65;;;;;;;;;;5027736;28;20060;-76
2023/05/30 08:36:52;;;;;;;5.72;1.70;;;;;;;;;;5062118;28;20071;-76
2023/05/30 08:39:18;;;;;;;3.35;1.45;;;;;;;;;;5035086;28;20040;-76
2023/05/30 08:41:44;;;;;;;5.15;1.73;;;;;;;;;;5063160;28;20078;-76
2023/05/30 08:44:09;;;;;;;3.83;1.35;;;;;;;;;;5057219;28;20041;-76
2023/05/30 08:46:42;;;;;;;4.47;1.33;;;;;;;;;;5040649;28;20045;-76
2023/05/30 08:49:11;;;;;;;4.65;1.40;;;;;;;;;;5013925;28;21016;-76
2023/05/30 08:51:41;;;;;;;3.72;1.20;;;;;;;;;;5029664;28;20043;-76
2023/05/30 08:54:12;;;;;;;4.90;1.50;;;;;;;;;;5049191;28;20790;-76
2023/05/30 08:56:45;;;;;;;2.97;1.23;;;;;;;;;;5033246;28;20062;-76
2023/05/30 08:59:13;;;;;;;3.35;1.48;;;;;;;;;;5053465;28;20040;-76
2023/05/30 09:01:39;;;;;;;5.30;1.60;;;;;;;;;;5044225;28;20048;-76
2023/05/30 09:04:07;;;;;;;4.80;1.77;;;;;;;;;;5051194;28;20048;-76
2023/05/30 09:06:36;;;;;;;1.75;1.00;;;;;;;;;;5058229;28;20044;-76
2023/05/30 09:09:03;;;;;;;6.05;1.70;;;;;;;;;;5022072;28;20101;-76
2023/05/30 09:11:29;;;;;;;4.15;1.80;;;;;;;;;;5037907;28;20086;-76
2023/05/30 09:13:55;;;;;;;5.07;1.65;;;;;;;;;;5040841;28;20106;-76
2023/05/30 09:16:21;;;;;;;5.88;1.55;;;;;;;;;;5033044;28;20028;-76
2023/05/30 09:18:46;;;;;;;4.75;1.50;;;;;;;;;;5047143;28;20056;-76
2023/05/30 09:21:12;;;;;;;5.72;1.67;;;;;;;;;;5040733;28;20053;-76
2023/05/30 09:23:40;;;;;;;2.63;1.33;;;;;;;;;;5032167;28;20048;-76
2023/05/30 09:26:07;;;;;;;4.90;1.90;;;;;;;;;;5043838;28;20433;-76
2023/05/30 09:28:35;;;;;;;5.78;1.60;;;;;;;;;;5017721;28;20049;-76
2023/05/30 09:31:01;;;;;;;4.55;1.50;;;;;;;;;;5060563;28;20053;-76
2023/05/30 09:33:44;;;;;;;7.30;1.83;;;;;;;;;;5052162;28;20036;-76
2023/05/30 09:36:18;;;;;;;3.30;1.42;;;;;;;;;;5045273;28;20218;-76
2023/05/30 09:38:56;;;;;;;5.78;2.00;;;;;;;;;;5022084;28;20051;-76
2023/05/30 09:41:26;;;;;;;6.90;2.25;;;;;;;;;;5036358;28;20032;-76
2023/05/30 09:43:53;;;;;;;6.18;2.50;;;;;;;;;;5051304;28;20063;-76
2023/05/30 09:46:21;;;;;;;3.80;1.30;;;;;;;;;;5028151;28;20041;-76
2023/05/30 09:48:46;;;;;;;6.93;2.03;;;;;;;;;;5041220;28;20032;-76
2023/05/30 09:51:11;;;;;;;2.15;1.15;;;;;;;;;;5025004;28;20048;-76
2023/05/30 09:53:37;;;;;;;7.20;2.08;;;;;;;;;;5033665;28;20058;-76
2023/05/30 09:56:03;;;;;;;4.22;1.35;;;;;;;;;;5041149;28;20598;-75
2023/05/30 09:58:30;;;;;;;6.53;1.90;;;;;;;;;;5049466;28;20067;-74
2023/05/30 10:00:57;;;;;;;3.60;1.95;;;;;;;;;;5069817;28;20039;-74
2023/05/30 10:03:42;;;;;;;8.65;2.20;;;;;;;;;;5055670;28;20040;-75
2023/05/30 10:06:14;;;;;;;10.52;2.97;;;;;;;;;;5004960;28;20478;-74
2023/05/30 10:08:45;;;;;;;3.30;1.40;;;;;;;;;;5045228;28;20048;-74
2023/05/30 10:11:12;;;;;;;6.03;2.30;;;;;;;;;;5044345;28;20377;-74
2023/05/30 10:13:39;;;;;;;7.40;2.30;;;;;;;;;;5058777;28;20085;-74
2023/05/30 10:16:13;;;;;;;5.95;2.05;;;;;;;;;;5066957;28;20753;-74
2023/05/30 10:18:43;;;;;;;10.32;2.33;;;;;;;;;;5012716;28;20065;-75
2023/05/30 10:21:11;;;;;;;4.07;1.77;;;;;;;;;;5056490;28;20045;-78
2023/05/30 10:23:40;;;;;;;5.82;2.00;;;;;;;;;;5021583;28;20597;-76
2023/05/30 10:26:07;;;;;;;7.35;2.20;;;;;;;;;;5035550;28;20044;-77
2023/05/30 10:28:35;;;;;;;5.47;1.42;;;;;;;;;;5047510;28;20047;-76
2023/05/30 10:31:02;;;;;;;6.47;2.40;;;;;;;;;;5010099;28;20569;-76
2023/05/30 10:33:32;;;;;;;5.97;2.13;;;;;;;;;;5050413;28;20055;-76
2023/05/30 10:35:58;;;;;;;2.88;1.30;;;;;;;;;;5044723;28;20047;-75
2023/05/30 10:38:25;;;;;;;3.63;1.40;;;;;;;;;;5041893;28;20040;-81
2023/05/30 10:40:53;;;;;;;5.70;2.20;;;;;;;;;;5047689;28;20044;-79
2023/05/30 10:43:44;;;;;;;4.10;1.83;;;;;;;;;;5046861;28;20103;-79
2023/05/30 10:46:15;;;;;;;5.13;2.10;;;;;;;;;;4984121;28;20737;-79
2023/05/30 10:48:55;;;;;;;8.98;2.50;;;;;;;;;;5049833;28;20048;-79
2023/05/30 10:51:20;;;;;;;6.95;2.47;;;;;;;;;;5051124;28;20060;-79
2023/05/30 10:53:47;;;;;;;5.38;1.63;;;;;;;;;;5056697;28;20048;-79
2023/05/30 10:56:39;;;;;;;6.20;2.08;;;;;;;;;;5015791;28;20037;-77
2023/05/30 10:59:14;;;;;;;6.25;2.20;;;;;;;;;;5062909;28;20136;-78
2023/05/30 11:01:40;;;;;;;7.25;2.60;;;;;;;;;;5047172;28;20048;-77
2023/05/30 11:04:08;;;;;;;4.50;1.55;;;;;;;;;;5029484;28;20047;-79
2023/05/30 11:06:40;;;;;;;4.53;2.35;;;;;;;;;;5030549;28;20136;-79
2023/05/30 11:09:10;;;;;;;5.78;2.25;;;;;;;;;;5025526;28;20738;-79
2023/05/30 11:11:40;;;;;;;6.57;2.22;;;;;;;;;;5066041;28;20036;-79
2023/05/30 11:14:06;;;;;;;7.05;2.33;;;;;;;;;;5063169;28;20204;-77
2023/05/30 11:16:32;;;;;;;7.28;2.42;;;;;;;;;;5072272;28;20079;-79
2023/05/30 11:19:22;;;;;;;3.95;1.85;;;;;;;;;;5067995;28;20127;-80
2023/05/30 11:22:01;;;;;;;2.10;1.40;;;;;;;;;;5035831;28;20041;-81
2023/05/30 11:24:28;;;;;;;6.00;2.00;;;;;;;;;;5066589;28;20153;-81
2023/05/30 11:27:06;;;;;;;5.63;2.30;;;;;;;;;;5029082;28;20037;-81
2023/05/30 11:29:51;;;;;;;3.95;1.95;;;;;;;;;;5032402;28;20037;-79
2023/05/30 11:32:19;;;;;;;5.35;2.13;;;;;;;;;;5023992;28;20117;-81
2023/05/30 11:34:45;;;;;;;4.97;1.98;;;;;;;;;;5043699;28;20511;-80
2023/05/30 11:37:11;;;;;;;2.72;1.70;;;;;;;;;;5070620;28;20591;-79
2023/05/30 11:39:37;;;;;;;7.43;2.47;;;;;;;;;;5070011;28;20044;-81
2023/05/30 11:42:03;;;;;;;5.90;2.42;;;;;;;;;;5068956;28;20470;-79
2023/05/30 11:44:33;;;;;;;5.18;2.28;;;;;;;;;;5057239;28;20927;-80
2023/05/30 11:47:03;;;;;;;6.00;2.15;;;;;;;;;;5025262;28;20063;-81
2023/05/30 11:49:29;;;;;;;7.30;2.47;;;;;;;;;;5058529;28;20107;-77
2023/05/30 11:51:54;;;;;;;7.60;2.47;;;;;;;;;;5071365;28;20116;-80
2023/05/30 11:54:20;;;;;;;6.43;2.20;;;;;;;;;;5069963;28;20043;-81
2023/05/30 11:56:47;;;;;;;5.13;1.75;;;;;;;;;;5066474;28;20548;-80
2023/05/30 11:59:21;;;;;;;6.97;2.60;;;;;;;;;;5039171;28;21471;-81
2023/05/30 12:01:56;;;;;;;5.68;2.28;;;;;;;;;;5022599;28;20048;-77
2023/05/30 12:04:32;;;;;;;7.13;2.58;;;;;;;;;;5059575;28;20052;-80
2023/05/30 12:07:05;;;;;;;4.15;1.73;;;;;;;;;;5071676;28;20536;-81
2023/05/30 12:09:38;;;;;;;4.68;1.77;;;;;;;;;;5028018;28;20048;-80
2023/05/30 12:12:05;;;;;;;7.70;3.00;;;;;;;;;;5031539;28;20098;-81
2023/05/30 12:14:56;;;;;;;8.07;2.40;;;;;;;;;;5066165;28;20189;-79
2023/05/30 12:17:24;;;;;;;6.80;2.47;;;;;;;;;;5073388;28;20131;-80
2023/05/30 12:19:58;;;;;;;2.53;1.38;;;;;;;;;;5057192;28;20047;-79
2023/05/30 12:22:24;;;;;;;5.97;2.63;;;;;;;;;;5060781;28;20048;-78
2023/05/30 12:24:51;;;;;;;3.78;1.90;;;;;;;;;;5074091;28;20062;-77
2023/05/30 12:27:19;;;;;;;4.68;2.15;;;;;;;;;;5077738;28;20050;-80
2023/05/30 12:29:45;;;;;;;7.75;2.40;;;;;;;;;;5070678;28;20059;-79
2023/05/30 12:32:10;;;;;;;3.10;1.80;;;;;;;;;;5058403;28;20067;-77
2023/05/30 12:34:42;;;;;;;3.15;2.00;;;;;;;;;;5070657;28;20048;-81
2023/05/30 12:37:12;;;;;;;3.70;1.70;;;;;;;;;;5058170;28;20038;-79
2023/05/30 12:40:07;;;;;;;7.32;2.47;;;;;;;;;;5071838;28;20115;-80
2023/05/30 12:42:34;;;;;;;5.57;2.20;;;;;;;;;;5042495;28;20613;-81
2023/05/30 12:45:04;;;;;;;6.10;2.42;;;;;;;;;;5057000;28;20050;-78
2023/05/30 12:47:30;;;;;;;;;;;;;;;;;;5043239;28;20044;-79
2023/05/30 12:49:57;;;;;;;6.55;2.50;;;;;;;;;;5058636;28;19998;-80
2023/05/30 12:52:27;;;;;;;8.93;2.50;;;;;;;;;;5067961;28;20564;-77
2023/05/30 12:54:53;;;;;;;6.57;2.22;;;;;;;;;;5059384;28;20036;-80
2023/05/30 12:57:20;;;;;;;4.13;2.10;;;;;;;;;;5068230;28;20091;-78
2023/05/30 12:59:46;;;;;;;6.10;2.72;;;;;;;;;;5059888;28;20032;-80
2023/05/30 13:02:12;;;;;;;6.30;2.42;;;;;;;;;;5071489;28;20055;-80
2023/05/30 13:04:39;;;;;;;6.35;2.60;;;;;;;;;;5058975;28;20051;-78
2023/05/30 13:07:12;;;;;;;4.72;2.42;;;;;;;;;;5065549;28;20040;-77
2023/05/30 13:09:38;;;;;;;4.30;2.17;;;;;;;;;;5054688;28;20064;-78
2023/05/30 13:12:08;;;;;;;5.97;2.15;;;;;;;;;;5050696;28;20441;-78
2023/05/30 13:14:37;;;;;;;7.55;2.33;;;;;;;;;;5039546;28;20041;-78
2023/05/30 13:17:04;;;;;;;6.50;2.38;;;;;;;;;;5068404;28;20032;-80
2023/05/30 13:19:30;;;;;;;7.47;2.58;;;;;;;;;;5062674;28;20708;-80
2023/05/30 13:21:55;;;;;;;3.33;1.70;;;;;;;;;;5051883;28;20044;-80
2023/05/30 13:24:21;;;;;;;6.05;2.40;;;;;;;;;;5039207;28;20041;-79
2023/05/30 13:26:46;;;;;;;5.93;2.22;;;;;;;;;;5026908;28;20044;-81
2023/05/30 13:29:12;;;;;;;5.57;2.25;;;;;;;;;;5047295;28;20040;-81
2023/05/30 13:31:37;;;;;;;7.10;2.80;;;;;;;;;;5032910;28;20041;-78
2023/05/30 13:34:03;;;;;;;5.35;1.77;;;;;;;;;;5058676;28;20120;-78
2023/05/30 13:36:29;;;;;;;6.05;2.50;;;;;;;;;;5035716;28;20047;-80
2023/05/30 13:38:56;;;;;;;7.03;2.53;;;;;;;;;;5061556;28;20491;-79
2023/05/30 13:41:21;;;;;;;7.28;2.63;;;;;;;;;;5046400;28;20073;-81
2023/05/30 13:43:47;;;;;;;5.90;2.67;;;;;;;;;;5068694;28;20043;-81
2023/05/30 13:46:12;;;;;;;4.70;2.28;;;;;;;;;;5051424;28;20033;-79
2023/05/30 13:48:38;;;;;;;9.05;2.83;;;;;;;;;;5037965;28;20194;-79
2023/05/30 13:51:04;;;;;;;9.05;2.50;;;;;;;;;;5044778;28;20033;-79
2023/05/30 13:53:29;;;;;;;8.77;2.28;;;;;;;;;;5059968;28;20182;-77
2023/05/30 13:55:55;;;;;;;6.13;2.45;;;;;;;;;;5057847;28;20040;-80
2023/05/30 13:58:20;;;;;;;5.53;2.22;;;;;;;;;;5057674;28;20214;-79
2023/05/30 14:00:47;;;;;;;6.50;2.75;;;;;;;;;;5061621;28;20069;-78
2023/05/30 14:03:13;;;;;;;7.03;2.30;;;;;;;;;;5061207;28;20516;-79
2023/05/30 14:05:39;;;;;;;2.78;1.75;;;;;;;;;;5063319;28;20059;-77
2023/05/30 14:08:04;;;;;;;6.50;2.38;;;;;;;;;;5066229;28;20106;-78
2023/05/30 14:10:31;;;;;;;6.75;2.60;;;;;;;;;;5064390;28;20150;-78
2023/05/30 14:12:57;;;;;;;6.85;2.55;;;;;;;;;;5030899;28;20124;-80
2023/05/30 14:15:22;;;;;;;4.75;2.40;;;;;;;;;;5065247;28;20036;-81
2023/05/30 14:17:48;;;;;;;6.88;2.20;;;;;;;;;;5044635;28;20078;-78
2023/05/30 14:20:14;;;;;;;6.07;2.00;;;;;;;;;;5067106;28;20032;-78
2023/05/30 14:22:40;;;;;;;5.65;2.10;;;;;;;;;;5042480;28;20040;-79
2023/05/30 14:25:07;;;;;;;7.57;2.05;;;;;;;;;;5050078;28;20505;-78
2023/05/30 14:27:33;;;;;;;7.00;2.22;;;;;;;;;;5033966;28;20101;-79
2023/05/30 14:29:58;;;;;;;6.47;2.28;;;;;;;;;;5042457;28;20041;-78
2023/05/30 14:32:24;;;;;;;6.13;2.13;;;;;;;;;;5037588;28;20116;-81
2023/05/30 14:34:50;;;;;;;5.60;2.28;;;;;;;;;;5053904;28;20042;-80
2023/05/30 14:37:15;;;;;;;3.53;1.83;;;;;;;;;;5045347;28;20044;-80
2023/05/30 14:39:41;;;;;;;4.10;1.75;;;;;;;;;;5069356;28;20032;-80
2023/05/30 14:42:06;;;;;;;3.85;1.65;;;;;;;;;;5057631;28;20039;-78
2023/05/30 14:44:32;;;;;;;5.45;1.90;;;;;;;;;;5060119;28;20067;-80